sensor_id;sensor_type;location;lat;lon;timestamp;P1;durP1;ratioP1;P2;durP2;ratioP2
20890;SDS011;10605;52.968;8.844;2023-05-07T00:02:06;28.00;;;22.75;;
20890;SDS011;10605;52.968;8.844;2023-05-07T00:04:32;31.00;;;22.58;;
20890;SDS011;10605;52.968;8.844;2023-05-07T00:07:01;31.10;;;23.10;;
20890;SDS011;10605;52.968;8.844;2023-05-07T00:09:27;24.70;;;21.77;;
20890;SDS011;10605;52.968;8.844;2023-05-07T00:11:53;27.35;;;22.38;;
20890;SDS011;10605;52.968;8.844;2023-05-07T00:14:19;27.17;;;22.00;;
20890;SDS011;10605;52.968;8.844;2023-05-07T00:16:45;27.83;;;22.83;;
20890;SDS011;10605;52.968;8.844;2023-05-07T00:19:11;25.52;;;22.30;;
20890;SDS011;10605;52.968;8.844;2023-05-07T00:21:37;27.27;;;22.25;;
20890;SDS011;10605;52.968;8.844;2023-05-07T00:24:02;26.50;;;21.92;;
20890;SDS011;10605;52.968;8.844;2023-05-07T00:26:28;28.42;;;23.10;;
20890;SDS011;10605;52.968;8.844;2023-05-07T00:28:54;34.80;;;22.30;;
20890;SDS011;10605;52.968;8.844;2023-05-07T00:31:20;31.38;;;22.83;;
20890;SDS011;10605;52.968;8.844;2023-05-07T00:33:45;25.88;;;21.85;;
20890;SDS011;10605;52.968;8.844;2023-05-07T00:36:11;24.23;;;21.63;;
20890;SDS011;10605;52.968;8.844;2023-05-07T00:38:37;25.90;;;22.63;;
20890;SDS011;10605;52.968;8.844;2023-05-07T00:41:03;26.63;;;21.50;;
20890;SDS011;10605;52.968;8.844;2023-05-07T00:43:28;27.42;;;22.80;;
20890;SDS011;10605;52.968;8.844;2023-05-07T00:45:54;26.95;;;22.10;;
20890;SDS011;10605;52.968;8.844;2023-05-07T00:48:20;27.17;;;23.55;;
20890;SDS011;10605;52.968;8.844;2023-05-07T00:50:46;27.55;;;23.30;;
20890;SDS011;10605;52.968;8.844;2023-05-07T00:53:13;29.80;;;23.92;;
20890;SDS011;10605;52.968;8.844;2023-05-07T00:55:39;27.55;;;22.63;;
20890;SDS011;10605;52.968;8.844;2023-05-07T00:58:05;26.30;;;23.00;;
20890;SDS011;10605;52.968;8.844;2023-05-07T01:00:31;27.60;;;23.15;;
20890;SDS011;10605;52.968;8.844;2023-05-07T01:02:57;35.13;;;24.23;;
20890;SDS011;10605;52.968;8.844;2023-05-07T01:05:23;30.88;;;24.48;;
20890;SDS011;10605;52.968;8.844;2023-05-07T01:07:50;31.10;;;24.70;;
20890;SDS011;10605;52.968;8.844;2023-05-07T01:10:18;32.80;;;26.05;;
20890;SDS011;10605;52.968;8.844;2023-05-07T01:12:44;31.35;;;25.40;;
20890;SDS011;10605;52.968;8.844;2023-05-07T01:15:12;34.90;;;26.52;;
20890;SDS011;10605;52.968;8.844;2023-05-07T01:17:39;34.72;;;26.35;;
20890;SDS011;10605;52.968;8.844;2023-05-07T01:20:06;37.22;;;26.33;;
20890;SDS011;10605;52.968;8.844;2023-05-07T01:22:33;37.00;;;26.05;;
20890;SDS011;10605;52.968;8.844;2023-05-07T01:25:01;34.95;;;25.65;;
20890;SDS011;10605;52.968;8.844;2023-05-07T01:27:31;33.78;;;25.85;;
20890;SDS011;10605;52.968;8.844;2023-05-07T01:29:58;31.63;;;25.00;;
20890;SDS011;10605;52.968;8.844;2023-05-07T01:32:47;31.92;;;25.13;;
20890;SDS011;10605;52.968;8.844;2023-05-07T01:35:15;35.10;;;26.15;;
20890;SDS011;10605;52.968;8.844;2023-05-07T01:37:49;29.73;;;24.92;;
20890;SDS011;10605;52.968;8.844;2023-05-07T01:40:15;35.05;;;24.25;;
20890;SDS011;10605;52.968;8.844;2023-05-07T01:42:41;27.30;;;22.48;;
20890;SDS011;10605;52.968;8.844;2023-05-07T01:45:08;24.50;;;21.42;;
20890;SDS011;10605;52.968;8.844;2023-05-07T01:47:35;25.80;;;20.73;;
20890;SDS011;10605;52.968;8.844;2023-05-07T01:50:02;28.02;;;20.27;;
20890;SDS011;10605;52.968;8.844;2023-05-07T01:52:30;29.35;;;21.55;;
20890;SDS011;10605;52.968;8.844;2023-05-07T01:54:56;27.90;;;20.75;;
20890;SDS011;10605;52.968;8.844;2023-05-07T01:57:22;31.92;;;21.50;;
20890;SDS011;10605;52.968;8.844;2023-05-07T01:59:48;29.70;;;20.90;;
20890;SDS011;10605;52.968;8.844;2023-05-07T02:02:13;29.65;;;20.92;;
20890;SDS011;10605;52.968;8.844;2023-05-07T02:04:39;30.00;;;21.15;;
20890;SDS011;10605;52.968;8.844;2023-05-07T02:07:05;27.80;;;20.60;;
20890;SDS011;10605;52.968;8.844;2023-05-07T02:09:30;29.23;;;21.60;;
20890;SDS011;10605;52.968;8.844;2023-05-07T02:11:56;33.80;;;22.73;;
20890;SDS011;10605;52.968;8.844;2023-05-07T02:14:22;30.27;;;20.95;;
20890;SDS011;10605;52.968;8.844;2023-05-07T02:16:47;28.52;;;20.77;;
20890;SDS011;10605;52.968;8.844;2023-05-07T02:19:13;30.65;;;21.73;;
20890;SDS011;10605;52.968;8.844;2023-05-07T02:21:38;32.58;;;22.13;;
20890;SDS011;10605;52.968;8.844;2023-05-07T02:24:04;28.35;;;21.52;;
20890;SDS011;10605;52.968;8.844;2023-05-07T02:26:30;30.52;;;22.00;;
20890;SDS011;10605;52.968;8.844;2023-05-07T02:28:56;27.50;;;21.25;;
20890;SDS011;10605;52.968;8.844;2023-05-07T02:31:21;31.20;;;21.08;;
20890;SDS011;10605;52.968;8.844;2023-05-07T02:33:47;32.83;;;22.88;;
20890;SDS011;10605;52.968;8.844;2023-05-07T02:36:12;32.22;;;23.08;;
20890;SDS011;10605;52.968;8.844;2023-05-07T02:38:38;32.30;;;22.17;;
20890;SDS011;10605;52.968;8.844;2023-05-07T02:41:04;32.88;;;22.55;;
20890;SDS011;10605;52.968;8.844;2023-05-07T02:43:30;28.25;;;21.38;;
20890;SDS011;10605;52.968;8.844;2023-05-07T02:46:05;28.02;;;20.17;;
20890;SDS011;10605;52.968;8.844;2023-05-07T02:48:32;27.27;;;20.75;;
20890;SDS011;10605;52.968;8.844;2023-05-07T02:50:58;27.73;;;20.65;;
20890;SDS011;10605;52.968;8.844;2023-05-07T02:53:25;28.05;;;20.48;;
20890;SDS011;10605;52.968;8.844;2023-05-07T02:55:54;28.98;;;21.33;;
20890;SDS011;10605;52.968;8.844;2023-05-07T02:58:24;31.17;;;21.35;;
20890;SDS011;10605;52.968;8.844;2023-05-07T03:00:51;23.70;;;19.77;;
20890;SDS011;10605;52.968;8.844;2023-05-07T03:03:16;28.65;;;20.98;;
20890;SDS011;10605;52.968;8.844;2023-05-07T03:05:42;28.95;;;20.90;;
20890;SDS011;10605;52.968;8.844;2023-05-07T03:08:08;29.08;;;20.50;;
20890;SDS011;10605;52.968;8.844;2023-05-07T03:10:34;32.65;;;21.67;;
20890;SDS011;10605;52.968;8.844;2023-05-07T03:13:00;27.10;;;20.02;;
20890;SDS011;10605;52.968;8.844;2023-05-07T03:15:26;27.08;;;19.80;;
20890;SDS011;10605;52.968;8.844;2023-05-07T03:17:52;26.20;;;19.67;;
20890;SDS011;10605;52.968;8.844;2023-05-07T03:20:17;26.90;;;20.10;;
20890;SDS011;10605;52.968;8.844;2023-05-07T03:22:43;28.45;;;20.25;;
20890;SDS011;10605;52.968;8.844;2023-05-07T03:25:09;28.70;;;20.48;;
20890;SDS011;10605;52.968;8.844;2023-05-07T03:27:35;27.70;;;20.15;;
20890;SDS011;10605;52.968;8.844;2023-05-07T03:30:01;28.48;;;19.70;;
20890;SDS011;10605;52.968;8.844;2023-05-07T03:32:27;30.73;;;20.38;;
20890;SDS011;10605;52.968;8.844;2023-05-07T03:34:53;26.63;;;21.15;;
20890;SDS011;10605;52.968;8.844;2023-05-07T03:37:18;30.10;;;21.23;;
20890;SDS011;10605;52.968;8.844;2023-05-07T03:39:44;30.83;;;21.38;;
20890;SDS011;10605;52.968;8.844;2023-05-07T03:42:10;31.60;;;21.30;;
20890;SDS011;10605;52.968;8.844;2023-05-07T03:44:35;29.40;;;20.75;;
20890;SDS011;10605;52.968;8.844;2023-05-07T03:47:01;23.60;;;19.67;;
20890;SDS011;10605;52.968;8.844;2023-05-07T03:49:27;30.63;;;21.25;;
20890;SDS011;10605;52.968;8.844;2023-05-07T03:51:53;31.30;;;20.77;;
20890;SDS011;10605;52.968;8.844;2023-05-07T03:54:19;31.70;;;22.33;;
20890;SDS011;10605;52.968;8.844;2023-05-07T03:56:44;31.08;;;22.05;;
20890;SDS011;10605;52.968;8.844;2023-05-07T03:59:10;31.98;;;22.23;;
20890;SDS011;10605;52.968;8.844;2023-05-07T04:01:37;29.23;;;22.13;;
20890;SDS011;10605;52.968;8.844;2023-05-07T04:04:02;30.95;;;22.38;;
20890;SDS011;10605;52.968;8.844;2023-05-07T04:06:29;33.45;;;23.90;;
20890;SDS011;10605;52.968;8.844;2023-05-07T04:08:55;28.35;;;21.65;;
20890;SDS011;10605;52.968;8.844;2023-05-07T04:11:21;31.08;;;21.77;;
20890;SDS011;10605;52.968;8.844;2023-05-07T04:13:46;34.50;;;23.02;;
20890;SDS011;10605;52.968;8.844;2023-05-07T04:16:12;32.00;;;22.90;;
20890;SDS011;10605;52.968;8.844;2023-05-07T04:18:38;31.63;;;22.80;;
20890;SDS011;10605;52.968;8.844;2023-05-07T04:21:03;34.63;;;23.83;;
20890;SDS011;10605;52.968;8.844;2023-05-07T04:23:30;35.72;;;23.50;;
20890;SDS011;10605;52.968;8.844;2023-05-07T04:25:55;29.63;;;22.13;;
20890;SDS011;10605;52.968;8.844;2023-05-07T04:28:22;37.97;;;23.48;;
20890;SDS011;10605;52.968;8.844;2023-05-07T04:30:48;32.55;;;23.08;;
20890;SDS011;10605;52.968;8.844;2023-05-07T04:33:14;34.45;;;22.02;;
20890;SDS011;10605;52.968;8.844;2023-05-07T04:35:43;30.48;;;22.35;;
20890;SDS011;10605;52.968;8.844;2023-05-07T04:38:09;27.63;;;20.85;;
20890;SDS011;10605;52.968;8.844;2023-05-07T04:40:37;24.13;;;19.60;;
20890;SDS011;10605;52.968;8.844;2023-05-07T04:43:03;24.63;;;18.88;;
20890;SDS011;10605;52.968;8.844;2023-05-07T04:45:29;24.40;;;19.55;;
20890;SDS011;10605;52.968;8.844;2023-05-07T04:47:55;23.90;;;18.52;;
20890;SDS011;10605;52.968;8.844;2023-05-07T04:50:20;25.52;;;18.73;;
20890;SDS011;10605;52.968;8.844;2023-05-07T04:52:48;24.55;;;19.27;;
20890;SDS011;10605;52.968;8.844;2023-05-07T04:55:14;20.80;;;18.08;;
20890;SDS011;10605;52.968;8.844;2023-05-07T04:57:40;25.95;;;18.83;;
20890;SDS011;10605;52.968;8.844;2023-05-07T05:00:06;23.13;;;18.13;;
20890;SDS011;10605;52.968;8.844;2023-05-07T05:02:33;23.13;;;18.13;;
20890;SDS011;10605;52.968;8.844;2023-05-07T05:05:00;21.80;;;17.08;;
20890;SDS011;10605;52.968;8.844;2023-05-07T05:07:27;23.55;;;17.63;;
20890;SDS011;10605;52.968;8.844;2023-05-07T05:09:53;20.50;;;16.58;;
20890;SDS011;10605;52.968;8.844;2023-05-07T05:12:19;19.00;;;17.00;;
20890;SDS011;10605;52.968;8.844;2023-05-07T05:14:45;18.40;;;14.65;;
20890;SDS011;10605;52.968;8.844;2023-05-07T05:17:11;16.73;;;15.02;;
20890;SDS011;10605;52.968;8.844;2023-05-07T05:19:36;17.30;;;14.85;;
20890;SDS011;10605;52.968;8.844;2023-05-07T05:22:02;16.05;;;13.88;;
20890;SDS011;10605;52.968;8.844;2023-05-07T05:24:29;18.10;;;15.45;;
20890;SDS011;10605;52.968;8.844;2023-05-07T05:26:55;19.40;;;15.57;;
20890;SDS011;10605;52.968;8.844;2023-05-07T05:29:21;18.27;;;14.00;;
20890;SDS011;10605;52.968;8.844;2023-05-07T05:31:46;17.23;;;14.85;;
20890;SDS011;10605;52.968;8.844;2023-05-07T05:34:12;16.48;;;14.32;;
20890;SDS011;10605;52.968;8.844;2023-05-07T05:36:38;20.00;;;14.30;;
20890;SDS011;10605;52.968;8.844;2023-05-07T05:39:04;18.67;;;14.90;;
20890;SDS011;10605;52.968;8.844;2023-05-07T05:41:29;20.45;;;15.82;;
20890;SDS011;10605;52.968;8.844;2023-05-07T05:43:55;19.85;;;16.08;;
20890;SDS011;10605;52.968;8.844;2023-05-07T05:46:21;18.25;;;15.57;;
20890;SDS011;10605;52.968;8.844;2023-05-07T05:48:47;17.40;;;14.35;;
20890;SDS011;10605;52.968;8.844;2023-05-07T05:51:12;16.67;;;14.88;;
20890;SDS011;10605;52.968;8.844;2023-05-07T05:53:38;18.95;;;14.90;;
20890;SDS011;10605;52.968;8.844;2023-05-07T05:56:03;16.30;;;14.52;;
20890;SDS011;10605;52.968;8.844;2023-05-07T05:58:29;16.25;;;14.60;;
20890;SDS011;10605;52.968;8.844;2023-05-07T06:00:55;16.50;;;13.45;;
20890;SDS011;10605;52.968;8.844;2023-05-07T06:03:21;15.98;;;14.27;;
20890;SDS011;10605;52.968;8.844;2023-05-07T06:05:47;15.75;;;13.00;;
20890;SDS011;10605;52.968;8.844;2023-05-07T06:08:13;15.50;;;13.90;;
20890;SDS011;10605;52.968;8.844;2023-05-07T06:10:38;14.65;;;13.18;;
20890;SDS011;10605;52.968;8.844;2023-05-07T06:13:04;14.27;;;12.80;;
20890;SDS011;10605;52.968;8.844;2023-05-07T06:15:30;14.20;;;12.77;;
20890;SDS011;10605;52.968;8.844;2023-05-07T06:17:55;15.40;;;13.88;;
20890;SDS011;10605;52.968;8.844;2023-05-07T06:20:22;13.15;;;11.95;;
20890;SDS011;10605;52.968;8.844;2023-05-07T06:22:48;15.55;;;13.23;;
20890;SDS011;10605;52.968;8.844;2023-05-07T06:25:14;14.52;;;13.15;;
20890;SDS011;10605;52.968;8.844;2023-05-07T06:27:39;13.93;;;12.65;;
20890;SDS011;10605;52.968;8.844;2023-05-07T06:30:05;13.73;;;12.52;;
20890;SDS011;10605;52.968;8.844;2023-05-07T06:32:32;15.00;;;13.30;;
20890;SDS011;10605;52.968;8.844;2023-05-07T06:34:57;13.90;;;12.60;;
20890;SDS011;10605;52.968;8.844;2023-05-07T06:37:23;13.85;;;12.45;;
20890;SDS011;10605;52.968;8.844;2023-05-07T06:39:49;14.60;;;12.57;;
20890;SDS011;10605;52.968;8.844;2023-05-07T06:42:15;13.63;;;12.32;;
20890;SDS011;10605;52.968;8.844;2023-05-07T06:44:40;13.82;;;12.52;;
20890;SDS011;10605;52.968;8.844;2023-05-07T06:47:06;14.32;;;12.82;;
20890;SDS011;10605;52.968;8.844;2023-05-07T06:49:32;14.10;;;12.68;;
20890;SDS011;10605;52.968;8.844;2023-05-07T06:51:58;13.95;;;11.52;;
20890;SDS011;10605;52.968;8.844;2023-05-07T06:54:24;13.70;;;12.50;;
20890;SDS011;10605;52.968;8.844;2023-05-07T06:56:49;15.65;;;11.25;;
20890;SDS011;10605;52.968;8.844;2023-05-07T06:59:15;13.88;;;12.65;;
20890;SDS011;10605;52.968;8.844;2023-05-07T07:01:41;13.68;;;12.38;;
20890;SDS011;10605;52.968;8.844;2023-05-07T07:04:06;13.93;;;12.57;;
20890;SDS011;10605;52.968;8.844;2023-05-07T07:06:32;14.75;;;12.70;;
20890;SDS011;10605;52.968;8.844;2023-05-07T07:08:58;14.10;;;12.75;;
20890;SDS011;10605;52.968;8.844;2023-05-07T07:11:24;13.43;;;12.13;;
20890;SDS011;10605;52.968;8.844;2023-05-07T07:13:50;14.48;;;12.95;;
20890;SDS011;10605;52.968;8.844;2023-05-07T07:16:16;14.07;;;12.98;;
20890;SDS011;10605;52.968;8.844;2023-05-07T07:18:42;14.23;;;12.80;;
20890;SDS011;10605;52.968;8.844;2023-05-07T07:21:07;14.30;;;13.00;;
20890;SDS011;10605;52.968;8.844;2023-05-07T07:23:33;13.45;;;12.15;;
20890;SDS011;10605;52.968;8.844;2023-05-07T07:25:59;14.77;;;13.35;;
20890;SDS011;10605;52.968;8.844;2023-05-07T07:28:24;14.60;;;13.30;;
20890;SDS011;10605;52.968;8.844;2023-05-07T07:30:50;14.52;;;13.35;;
20890;SDS011;10605;52.968;8.844;2023-05-07T07:33:16;13.88;;;12.70;;
20890;SDS011;10605;52.968;8.844;2023-05-07T07:35:42;13.35;;;12.18;;
20890;SDS011;10605;52.968;8.844;2023-05-07T07:38:07;13.82;;;12.50;;
20890;SDS011;10605;52.968;8.844;2023-05-07T07:40:36;13.40;;;12.23;;
20890;SDS011;10605;52.968;8.844;2023-05-07T07:43:02;12.90;;;11.80;;
20890;SDS011;10605;52.968;8.844;2023-05-07T07:45:27;12.45;;;11.38;;
20890;SDS011;10605;52.968;8.844;2023-05-07T07:47:54;13.45;;;11.15;;
20890;SDS011;10605;52.968;8.844;2023-05-07T07:50:19;11.80;;;10.85;;
20890;SDS011;10605;52.968;8.844;2023-05-07T07:52:45;11.85;;;10.85;;
20890;SDS011;10605;52.968;8.844;2023-05-07T07:55:11;10.60;;;9.80;;
20890;SDS011;10605;52.968;8.844;2023-05-07T07:57:37;11.32;;;10.48;;
20890;SDS011;10605;52.968;8.844;2023-05-07T08:00:03;12.02;;;9.88;;
20890;SDS011;10605;52.968;8.844;2023-05-07T08:02:29;11.57;;;10.68;;
20890;SDS011;10605;52.968;8.844;2023-05-07T08:04:55;10.80;;;9.98;;
20890;SDS011;10605;52.968;8.844;2023-05-07T08:07:21;11.55;;;10.65;;
20890;SDS011;10605;52.968;8.844;2023-05-07T08:09:48;11.15;;;10.35;;
20890;SDS011;10605;52.968;8.844;2023-05-07T08:12:14;11.13;;;10.23;;
20890;SDS011;10605;52.968;8.844;2023-05-07T08:14:40;11.00;;;10.20;;
20890;SDS011;10605;52.968;8.844;2023-05-07T08:17:06;10.93;;;9.93;;
20890;SDS011;10605;52.968;8.844;2023-05-07T08:19:32;10.18;;;9.45;;
20890;SDS011;10605;52.968;8.844;2023-05-07T08:21:57;10.38;;;9.43;;
20890;SDS011;10605;52.968;8.844;2023-05-07T08:24:23;10.38;;;9.43;;
20890;SDS011;10605;52.968;8.844;2023-05-07T08:26:49;9.75;;;9.05;;
20890;SDS011;10605;52.968;8.844;2023-05-07T08:29:15;10.38;;;9.43;;
20890;SDS011;10605;52.968;8.844;2023-05-07T08:31:40;10.02;;;9.20;;
20890;SDS011;10605;52.968;8.844;2023-05-07T08:34:06;9.77;;;8.80;;
20890;SDS011;10605;52.968;8.844;2023-05-07T08:36:32;9.57;;;8.52;;
20890;SDS011;10605;52.968;8.844;2023-05-07T08:38:58;9.85;;;9.00;;
20890;SDS011;10605;52.968;8.844;2023-05-07T08:41:24;9.57;;;8.88;;
20890;SDS011;10605;52.968;8.844;2023-05-07T08:43:50;9.60;;;8.93;;
20890;SDS011;10605;52.968;8.844;2023-05-07T08:46:17;9.60;;;8.90;;
20890;SDS011;10605;52.968;8.844;2023-05-07T08:48:50;9.75;;;8.48;;
20890;SDS011;10605;52.968;8.844;2023-05-07T08:51:17;9.18;;;8.48;;
20890;SDS011;10605;52.968;8.844;2023-05-07T08:53:45;8.60;;;8.00;;
20890;SDS011;10605;52.968;8.844;2023-05-07T08:56:13;8.45;;;7.85;;
20890;SDS011;10605;52.968;8.844;2023-05-07T08:58:40;9.15;;;8.25;;
20890;SDS011;10605;52.968;8.844;2023-05-07T09:01:07;8.70;;;8.10;;
20890;SDS011;10605;52.968;8.844;2023-05-07T09:03:36;8.93;;;8.23;;
20890;SDS011;10605;52.968;8.844;2023-05-07T09:06:03;10.35;;;7.93;;
20890;SDS011;10605;52.968;8.844;2023-05-07T09:08:29;8.95;;;8.23;;
20890;SDS011;10605;52.968;8.844;2023-05-07T09:10:57;9.60;;;8.82;;
20890;SDS011;10605;52.968;8.844;2023-05-07T09:13:22;8.80;;;8.13;;
20890;SDS011;10605;52.968;8.844;2023-05-07T09:15:48;9.05;;;8.45;;
20890;SDS011;10605;52.968;8.844;2023-05-07T09:18:14;8.27;;;7.68;;
20890;SDS011;10605;52.968;8.844;2023-05-07T09:20:40;8.50;;;7.68;;
20890;SDS011;10605;52.968;8.844;2023-05-07T09:23:06;8.88;;;8.10;;
20890;SDS011;10605;52.968;8.844;2023-05-07T09:25:33;9.13;;;8.25;;
20890;SDS011;10605;52.968;8.844;2023-05-07T09:28:00;9.15;;;8.32;;
20890;SDS011;10605;52.968;8.844;2023-05-07T09:30:30;8.98;;;8.27;;
20890;SDS011;10605;52.968;8.844;2023-05-07T09:33:01;8.68;;;8.02;;
20890;SDS011;10605;52.968;8.844;2023-05-07T09:35:28;9.73;;;8.82;;
20890;SDS011;10605;52.968;8.844;2023-05-07T09:37:58;7.50;;;7.00;;
20890;SDS011;10605;52.968;8.844;2023-05-07T09:40:29;9.32;;;8.23;;
20890;SDS011;10605;52.968;8.844;2023-05-07T09:43:12;8.68;;;7.97;;
20890;SDS011;10605;52.968;8.844;2023-05-07T09:45:39;9.45;;;8.40;;
20890;SDS011;10605;52.968;8.844;2023-05-07T09:48:36;9.73;;;8.80;;
20890;SDS011;10605;52.968;8.844;2023-05-07T09:54:33;9.00;;;8.05;;
20890;SDS011;10605;52.968;8.844;2023-05-07T09:57:03;9.43;;;8.73;;
20890;SDS011;10605;52.968;8.844;2023-05-07T10:03:04;10.43;;;9.15;;
20890;SDS011;10605;52.968;8.844;2023-05-07T10:05:34;10.05;;;9.35;;
20890;SDS011;10605;52.968;8.844;2023-05-07T10:08:01;9.65;;;9.00;;
20890;SDS011;10605;52.968;8.844;2023-05-07T10:10:27;9.32;;;8.63;;
20890;SDS011;10605;52.968;8.844;2023-05-07T10:12:55;10.32;;;9.48;;
20890;SDS011;10605;52.968;8.844;2023-05-07T10:15:22;9.75;;;9.05;;
20890;SDS011;10605;52.968;8.844;2023-05-07T10:17:49;10.15;;;9.25;;
20890;SDS011;10605;52.968;8.844;2023-05-07T10:20:16;10.23;;;9.35;;
20890;SDS011;10605;52.968;8.844;2023-05-07T10:22:43;11.00;;;9.23;;
20890;SDS011;10605;52.968;8.844;2023-05-07T10:27:43;9.45;;;8.65;;
20890;SDS011;10605;52.968;8.844;2023-05-07T10:33:01;8.93;;;8.18;;
20890;SDS011;10605;52.968;8.844;2023-05-07T10:35:37;9.52;;;8.93;;
20890;SDS011;10605;52.968;8.844;2023-05-07T10:38:06;9.23;;;8.45;;
20890;SDS011;10605;52.968;8.844;2023-05-07T10:40:32;10.23;;;9.25;;
20890;SDS011;10605;52.968;8.844;2023-05-07T10:45:30;9.98;;;9.27;;
20890;SDS011;10605;52.968;8.844;2023-05-07T10:48:05;10.23;;;9.30;;
20890;SDS011;10605;52.968;8.844;2023-05-07T10:50:33;9.82;;;9.05;;
20890;SDS011;10605;52.968;8.844;2023-05-07T10:55:49;10.38;;;9.38;;
20890;SDS011;10605;52.968;8.844;2023-05-07T11:00:55;9.02;;;8.27;;
20890;SDS011;10605;52.968;8.844;2023-05-07T11:03:22;9.75;;;9.05;;
20890;SDS011;10605;52.968;8.844;2023-05-07T11:05:47;10.02;;;9.27;;
20890;SDS011;10605;52.968;8.844;2023-05-07T11:11:17;9.90;;;9.10;;
20890;SDS011;10605;52.968;8.844;2023-05-07T11:13:49;10.95;;;10.05;;
20890;SDS011;10605;52.968;8.844;2023-05-07T11:16:22;9.20;;;8.50;;
20890;SDS011;10605;52.968;8.844;2023-05-07T11:18:53;9.60;;;8.80;;
20890;SDS011;10605;52.968;8.844;2023-05-07T11:21:36;10.07;;;9.38;;
20890;SDS011;10605;52.968;8.844;2023-05-07T11:24:04;10.55;;;9.07;;
20890;SDS011;10605;52.968;8.844;2023-05-07T11:26:31;9.68;;;8.98;;
20890;SDS011;10605;52.968;8.844;2023-05-07T11:29:16;10.15;;;9.25;;
20890;SDS011;10605;52.968;8.844;2023-05-07T11:31:47;9.13;;;8.32;;
20890;SDS011;10605;52.968;8.844;2023-05-07T11:34:24;10.32;;;9.55;;
20890;SDS011;10605;52.968;8.844;2023-05-07T11:36:51;10.43;;;9.50;;
20890;SDS011;10605;52.968;8.844;2023-05-07T11:39:27;9.30;;;8.50;;
20890;SDS011;10605;52.968;8.844;2023-05-07T11:41:58;7.90;;;7.30;;
20890;SDS011;10605;52.968;8.844;2023-05-07T11:44:43;7.63;;;6.97;;
20890;SDS011;10605;52.968;8.844;2023-05-07T11:47:11;7.60;;;7.07;;
20890;SDS011;10605;52.968;8.844;2023-05-07T11:49:42;8.73;;;8.02;;
20890;SDS011;10605;52.968;8.844;2023-05-07T11:52:07;7.93;;;7.32;;
20890;SDS011;10605;52.968;8.844;2023-05-07T11:54:36;7.82;;;7.22;;
20890;SDS011;10605;52.968;8.844;2023-05-07T11:57:02;8.48;;;7.68;;
20890;SDS011;10605;52.968;8.844;2023-05-07T11:59:28;8.88;;;8.02;;
20890;SDS011;10605;52.968;8.844;2023-05-07T12:01:57;7.95;;;7.35;;
20890;SDS011;10605;52.968;8.844;2023-05-07T12:04:24;8.05;;;7.40;;
20890;SDS011;10605;52.968;8.844;2023-05-07T12:06:53;8.00;;;7.40;;
20890;SDS011;10605;52.968;8.844;2023-05-07T12:09:20;8.48;;;7.18;;
20890;SDS011;10605;52.968;8.844;2023-05-07T12:11:46;7.65;;;7.15;;
20890;SDS011;10605;52.968;8.844;2023-05-07T12:14:12;7.53;;;7.03;;
20890;SDS011;10605;52.968;8.844;2023-05-07T12:16:40;6.97;;;6.50;;
20890;SDS011;10605;52.968;8.844;2023-05-07T12:19:06;7.65;;;7.05;;
20890;SDS011;10605;52.968;8.844;2023-05-07T12:21:34;7.53;;;6.85;;
20890;SDS011;10605;52.968;8.844;2023-05-07T12:24:00;7.78;;;7.07;;
20890;SDS011;10605;52.968;8.844;2023-05-07T12:26:26;6.88;;;6.43;;
20890;SDS011;10605;52.968;8.844;2023-05-07T12:28:52;7.75;;;7.15;;
20890;SDS011;10605;52.968;8.844;2023-05-07T12:31:18;8.40;;;6.68;;
20890;SDS011;10605;52.968;8.844;2023-05-07T12:33:43;7.28;;;6.78;;
20890;SDS011;10605;52.968;8.844;2023-05-07T12:36:11;7.25;;;6.75;;
20890;SDS011;10605;52.968;8.844;2023-05-07T12:38:38;7.03;;;6.38;;
20890;SDS011;10605;52.968;8.844;2023-05-07T12:41:06;8.93;;;5.75;;
20890;SDS011;10605;52.968;8.844;2023-05-07T12:43:33;6.50;;;5.95;;
20890;SDS011;10605;52.968;8.844;2023-05-07T12:46:03;6.80;;;6.30;;
20890;SDS011;10605;52.968;8.844;2023-05-07T12:48:30;7.43;;;6.82;;
20890;SDS011;10605;52.968;8.844;2023-05-07T12:50:57;6.97;;;6.57;;
20890;SDS011;10605;52.968;8.844;2023-05-07T12:53:25;7.28;;;6.78;;
20890;SDS011;10605;52.968;8.844;2023-05-07T12:55:53;5.80;;;5.50;;
20890;SDS011;10605;52.968;8.844;2023-05-07T12:58:30;6.00;;;5.60;;
20890;SDS011;10605;52.968;8.844;2023-05-07T13:00:59;6.47;;;5.88;;
20890;SDS011;10605;52.968;8.844;2023-05-07T13:03:30;6.03;;;5.63;;
20890;SDS011;10605;52.968;8.844;2023-05-07T13:05:57;5.80;;;5.50;;
20890;SDS011;10605;52.968;8.844;2023-05-07T13:08:25;6.07;;;5.68;;
20890;SDS011;10605;52.968;8.844;2023-05-07T13:11:02;6.55;;;5.40;;
20890;SDS011;10605;52.968;8.844;2023-05-07T13:13:33;9.27;;;5.78;;
20890;SDS011;10605;52.968;8.844;2023-05-07T13:16:00;5.55;;;5.20;;
20890;SDS011;10605;52.968;8.844;2023-05-07T13:21:03;5.40;;;5.05;;
20890;SDS011;10605;52.968;8.844;2023-05-07T13:23:29;5.45;;;5.10;;
20890;SDS011;10605;52.968;8.844;2023-05-07T13:25:55;5.07;;;4.55;;
20890;SDS011;10605;52.968;8.844;2023-05-07T13:28:23;5.45;;;5.05;;
20890;SDS011;10605;52.968;8.844;2023-05-07T13:30:49;5.75;;;5.03;;
20890;SDS011;10605;52.968;8.844;2023-05-07T13:33:17;5.57;;;5.07;;
20890;SDS011;10605;52.968;8.844;2023-05-07T13:35:43;5.25;;;4.85;;
20890;SDS011;10605;52.968;8.844;2023-05-07T13:38:09;7.00;;;5.50;;
20890;SDS011;10605;52.968;8.844;2023-05-07T13:40:34;5.85;;;5.55;;
20890;SDS011;10605;52.968;8.844;2023-05-07T13:43:00;4.95;;;4.65;;
20890;SDS011;10605;52.968;8.844;2023-05-07T13:45:28;5.25;;;4.72;;
20890;SDS011;10605;52.968;8.844;2023-05-07T13:47:58;5.47;;;5.18;;
20890;SDS011;10605;52.968;8.844;2023-05-07T13:50:26;4.97;;;4.68;;
20890;SDS011;10605;52.968;8.844;2023-05-07T13:53:11;5.35;;;4.80;;
20890;SDS011;10605;52.968;8.844;2023-05-07T13:56:01;5.57;;;5.07;;
20890;SDS011;10605;52.968;8.844;2023-05-07T13:58:43;5.78;;;5.35;;
20890;SDS011;10605;52.968;8.844;2023-05-07T14:01:14;6.93;;;6.32;;
20890;SDS011;10605;52.968;8.844;2023-05-07T14:03:50;10.95;;;5.93;;
20890;SDS011;10605;52.968;8.844;2023-05-07T14:06:16;6.03;;;5.72;;
20890;SDS011;10605;52.968;8.844;2023-05-07T14:08:41;6.85;;;6.40;;
20890;SDS011;10605;52.968;8.844;2023-05-07T14:11:08;6.88;;;6.47;;
20890;SDS011;10605;52.968;8.844;2023-05-07T14:14:09;6.78;;;6.15;;
20890;SDS011;10605;52.968;8.844;2023-05-07T14:16:38;7.57;;;6.88;;
20890;SDS011;10605;52.968;8.844;2023-05-07T14:19:04;7.55;;;7.00;;
20890;SDS011;10605;52.968;8.844;2023-05-07T14:21:29;6.63;;;6.22;;
20890;SDS011;10605;52.968;8.844;2023-05-07T14:23:55;7.47;;;6.90;;
20890;SDS011;10605;52.968;8.844;2023-05-07T14:26:35;7.75;;;7.22;;
20890;SDS011;10605;52.968;8.844;2023-05-07T14:29:00;7.63;;;7.03;;
20890;SDS011;10605;52.968;8.844;2023-05-07T14:31:26;8.00;;;7.40;;
20890;SDS011;10605;52.968;8.844;2023-05-07T14:33:53;7.68;;;7.18;;
20890;SDS011;10605;52.968;8.844;2023-05-07T14:36:18;9.93;;;8.00;;
20890;SDS011;10605;52.968;8.844;2023-05-07T14:38:51;8.00;;;7.35;;
20890;SDS011;10605;52.968;8.844;2023-05-07T14:41:19;8.40;;;7.72;;
20890;SDS011;10605;52.968;8.844;2023-05-07T14:43:46;8.63;;;7.75;;
20890;SDS011;10605;52.968;8.844;2023-05-07T14:46:23;8.48;;;7.88;;
20890;SDS011;10605;52.968;8.844;2023-05-07T14:48:49;10.95;;;7.78;;
20890;SDS011;10605;52.968;8.844;2023-05-07T14:51:15;8.55;;;8.05;;
20890;SDS011;10605;52.968;8.844;2023-05-07T14:53:41;8.48;;;7.88;;
20890;SDS011;10605;52.968;8.844;2023-05-07T14:56:07;8.68;;;7.78;;
20890;SDS011;10605;52.968;8.844;2023-05-07T14:58:33;8.13;;;7.35;;